createdAt,value
2022-10-21T00:00:59.321Z,10.20
2022-10-21T00:03:38.930Z,10.30
2022-10-21T00:06:08.037Z,10.30
2022-10-21T00:08:36.467Z,10.30
2022-10-21T00:11:06.834Z,10.30
2022-10-21T00:13:37.772Z,10.30
2022-10-21T00:16:05.669Z,10.30
2022-10-21T00:18:34.267Z,10.30
2022-10-21T00:21:09.645Z,10.30
2022-10-21T00:23:36.954Z,10.30
2022-10-21T00:26:04.794Z,10.40
2022-10-21T00:28:32.604Z,10.40
2022-10-21T00:31:00.092Z,10.40
2022-10-21T00:33:28.437Z,10.40
2022-10-21T00:35:58.183Z,10.40
2022-10-21T00:38:28.149Z,10.30
2022-10-21T00:40:56.147Z,10.40
2022-10-21T00:43:23.980Z,10.40
2022-10-21T00:46:02.696Z,10.30
2022-10-21T00:48:30.356Z,10.40
2022-10-21T00:51:06.610Z,10.50
2022-10-21T00:53:36.953Z,10.50
2022-10-21T00:56:14.092Z,10.60
2022-10-21T00:58:45.784Z,10.60
2022-10-21T01:01:17.744Z,10.60
2022-10-21T01:03:50.526Z,10.70
2022-10-21T01:06:22.080Z,10.60
2022-10-21T01:08:49.774Z,10.60
2022-10-21T01:11:19.556Z,10.60
2022-10-21T01:14:06.957Z,10.60
2022-10-21T01:16:48.240Z,10.60
2022-10-21T01:19:55.328Z,10.60
2022-10-21T01:22:22.818Z,10.60
2022-10-21T01:25:15.912Z,10.50
2022-10-21T01:27:54.308Z,10.60
2022-10-21T01:30:36.481Z,10.60
2022-10-21T01:33:42.467Z,10.70
2022-10-21T01:36:37.070Z,10.70
2022-10-21T01:39:38.988Z,10.60
2022-10-21T01:42:27.609Z,10.50
2022-10-21T01:45:23.147Z,10.50
2022-10-21T01:47:56.296Z,10.50
2022-10-21T01:50:28.725Z,10.50
2022-10-21T01:53:02.746Z,10.50
2022-10-21T01:55:32.200Z,10.50
2022-10-21T01:58:22.391Z,10.50
2022-10-21T02:00:52.109Z,10.50
2022-10-21T02:03:24.686Z,10.50
2022-10-21T02:05:54.635Z,10.50
2022-10-21T02:08:22.182Z,10.50
2022-10-21T02:10:57.112Z,10.50
2022-10-21T02:13:29.873Z,10.50
2022-10-21T02:16:01.516Z,10.50
2022-10-21T02:18:28.701Z,10.50
2022-10-21T02:21:07.777Z,10.50
2022-10-21T02:23:46.206Z,10.40
2022-10-21T02:26:13.661Z,10.40
2022-10-21T02:28:41.750Z,10.40
2022-10-21T02:31:20.034Z,10.40
2022-10-21T02:34:01.880Z,10.40
2022-10-21T02:36:39.679Z,10.40
2022-10-21T02:39:27.508Z,10.30
2022-10-21T02:41:57.944Z,10.30
2022-10-21T02:44:25.543Z,10.40
2022-10-21T02:46:52.923Z,10.30
2022-10-21T02:49:22.271Z,10.30
2022-10-21T02:51:49.721Z,10.30
2022-10-21T02:54:16.773Z,10.30
2022-10-21T02:56:44.226Z,10.30
2022-10-21T02:59:11.408Z,10.30
2022-10-21T03:01:39.194Z,10.30
2022-10-21T03:04:08.809Z,10.30
2022-10-21T03:06:36.364Z,10.20
2022-10-21T03:09:03.649Z,10.20
2022-10-21T03:11:31.105Z,10.20
2022-10-21T03:13:58.197Z,10.20
2022-10-21T03:16:25.818Z,10.20
2022-10-21T03:18:53.053Z,10.20
2022-10-21T03:21:20.622Z,10.20
2022-10-21T03:23:48.078Z,10.10
2022-10-21T03:26:15.499Z,10.10
2022-10-21T03:28:44.893Z,10.10
2022-10-21T03:31:12.343Z,10.10
2022-10-21T03:33:39.895Z,10.10
2022-10-21T03:36:07.351Z,10.00
2022-10-21T03:38:34.482Z,10.00
2022-10-21T03:41:02.055Z,10.00
2022-10-21T03:43:29.161Z,9.90
2022-10-21T03:45:59.118Z,10.00
2022-10-21T03:48:26.320Z,10.00
2022-10-21T03:50:55.567Z,10.00
2022-10-21T03:53:41.425Z,10.00
2022-10-21T03:56:10.035Z,10.00
2022-10-21T03:58:37.243Z,10.00
2022-10-21T04:01:04.860Z,10.00
2022-10-21T04:03:32.148Z,10.00
2022-10-21T04:05:59.569Z,10.00
2022-10-21T04:08:26.729Z,10.00
2022-10-21T04:10:57.557Z,9.90
2022-10-21T04:13:24.845Z,9.90
2022-10-21T04:15:58.301Z,9.90
2022-10-21T04:18:27.997Z,9.90
2022-10-21T04:20:55.559Z,9.90
2022-10-21T04:23:24.938Z,9.80
2022-10-21T04:25:52.499Z,9.80
2022-10-21T04:28:19.625Z,9.80
2022-10-21T04:30:46.928Z,9.90
2022-10-21T04:33:16.837Z,9.90
2022-10-21T04:35:44.272Z,9.90
2022-10-21T04:38:11.355Z,9.90
2022-10-21T04:40:38.848Z,9.90
2022-10-21T04:43:06.101Z,9.90
2022-10-21T04:45:33.427Z,9.90
2022-10-21T04:48:00.777Z,9.90
2022-10-21T04:50:28.074Z,9.90
2022-10-21T04:52:57.537Z,9.90
2022-10-21T04:55:27.587Z,9.90
2022-10-21T04:57:54.750Z,9.90
2022-10-21T05:00:22.117Z,9.90
2022-10-21T05:02:49.390Z,10.00
2022-10-21T05:05:16.860Z,9.90
2022-10-21T05:07:44.051Z,10.00
2022-10-21T05:10:11.516Z,9.90
2022-10-21T05:12:38.607Z,10.00
2022-10-21T05:15:06.278Z,9.90
2022-10-21T05:17:33.771Z,9.90
2022-10-21T05:20:00.939Z,10.00
2022-10-21T05:22:27.940Z,10.00
2022-10-21T05:24:55.484Z,10.00
2022-10-21T05:27:22.772Z,10.00
2022-10-21T05:29:50.040Z,10.00
2022-10-21T05:32:17.443Z,10.00
2022-10-21T05:34:44.830Z,9.90
2022-10-21T05:37:11.921Z,10.00
2022-10-21T05:42:06.432Z,10.00
2022-10-21T05:44:33.759Z,10.00
2022-10-21T05:47:03.568Z,10.00
2022-10-21T05:49:30.893Z,10.10
2022-10-21T05:51:57.928Z,10.00
2022-10-21T05:54:27.637Z,10.00
2022-10-21T05:56:58.247Z,10.10
2022-10-21T05:59:25.629Z,10.10
2022-10-21T06:01:52.801Z,10.10
2022-10-21T06:04:22.528Z,10.10
2022-10-21T06:06:51.812Z,10.10
2022-10-21T06:09:21.996Z,10.20
2022-10-21T06:11:51.627Z,10.20
2022-10-21T06:14:18.921Z,10.20
2022-10-21T06:16:48.409Z,10.20
2022-10-21T06:19:15.918Z,10.30
2022-10-21T06:21:43.065Z,10.30
2022-10-21T06:24:10.546Z,10.30
2022-10-21T06:26:37.851Z,10.30
2022-10-21T06:29:05.249Z,10.40
2022-10-21T06:31:32.743Z,10.40
2022-10-21T06:34:00.097Z,10.30
2022-10-21T06:36:27.150Z,10.40
2022-10-21T06:38:54.440Z,10.50
2022-10-21T06:41:21.575Z,10.60
2022-10-21T06:43:48.888Z,10.60
2022-10-21T06:46:16.345Z,10.70
2022-10-21T06:48:43.745Z,10.70
2022-10-21T06:51:14.844Z,10.80
2022-10-21T06:53:45.047Z,10.80
2022-10-21T06:56:19.208Z,10.90
2022-10-21T06:58:48.264Z,10.90
2022-10-21T07:01:34.831Z,10.80
2022-10-21T07:04:11.614Z,10.80
2022-10-21T07:06:38.955Z,10.80
2022-10-21T07:09:07.840Z,10.70
2022-10-21T07:11:35.554Z,10.80
2022-10-21T07:14:02.892Z,10.70
2022-10-21T07:16:33.477Z,10.80
2022-10-21T07:19:01.141Z,10.70
2022-10-21T07:21:30.035Z,10.70
2022-10-21T07:23:59.652Z,10.70
2022-10-21T07:26:29.459Z,10.70
2022-10-21T07:28:57.563Z,10.80
2022-10-21T07:31:28.398Z,10.90
2022-10-21T07:33:55.885Z,11.00
2022-10-21T07:36:25.905Z,11.10
2022-10-21T07:38:55.146Z,11.30
2022-10-21T07:41:26.019Z,11.50
2022-10-21T07:43:54.714Z,11.80
2022-10-21T07:46:22.764Z,12.00
2022-10-21T07:48:50.824Z,12.40
2022-10-21T07:51:23.654Z,12.90
2022-10-21T07:53:55.273Z,13.40
2022-10-21T07:56:31.711Z,14.80
2022-10-21T07:58:59.601Z,16.90
2022-10-21T08:01:29.531Z,18.40
2022-10-21T08:03:58.372Z,20.80
2022-10-21T08:06:26.641Z,22.70
2022-10-21T08:08:54.092Z,23.40
2022-10-21T08:11:23.283Z,24.00
2022-10-21T08:13:51.169Z,25.90
2022-10-21T08:16:18.368Z,27.10
2022-10-21T08:18:45.725Z,26.20
2022-10-21T08:21:13.301Z,24.00
2022-10-21T08:23:40.709Z,22.60
2022-10-21T08:26:11.592Z,21.80
2022-10-21T08:28:39.541Z,21.20
2022-10-21T08:31:10.303Z,21.20
2022-10-21T08:33:40.047Z,23.20
2022-10-21T08:36:09.154Z,24.90
2022-10-21T08:38:36.458Z,25.90
2022-10-21T08:41:23.093Z,26.30
2022-10-21T08:43:50.445Z,26.40
2022-10-21T08:46:23.174Z,25.60
2022-10-21T08:49:03.999Z,22.40
2022-10-21T08:51:36.834Z,20.30
2022-10-21T08:54:12.413Z,18.50
2022-10-21T08:56:40.400Z,17.20
2022-10-21T08:59:33.872Z,16.20
2022-10-21T09:02:13.318Z,16.20
2022-10-21T09:05:09.814Z,16.70
2022-10-21T09:07:56.256Z,17.80
2022-10-21T09:11:06.867Z,21.90
2022-10-21T09:13:52.899Z,22.00
2022-10-21T09:16:44.881Z,22.20
2022-10-21T09:19:22.004Z,24.80
2022-10-21T09:22:34.410Z,26.00
2022-10-21T09:25:40.200Z,24.50
2022-10-21T09:28:13.535Z,22.70
2022-10-21T09:30:44.436Z,23.10
2022-10-21T09:33:24.323Z,23.80
2022-10-21T09:36:13.912Z,23.70
2022-10-21T09:38:52.733Z,24.20
2022-10-21T09:41:24.551Z,24.10
2022-10-21T09:43:52.356Z,24.10
2022-10-21T09:46:20.132Z,25.10
2022-10-21T09:51:43.930Z,24.60
2022-10-21T09:54:19.723Z,23.00
2022-10-21T09:56:50.112Z,20.90
2022-10-21T09:59:22.423Z,19.40
2022-10-21T10:01:50.160Z,17.90
2022-10-21T10:04:32.323Z,16.60
2022-10-21T10:07:19.507Z,15.60
2022-10-21T10:09:47.609Z,15.00
2022-10-21T10:12:22.365Z,14.90
2022-10-21T10:14:50.047Z,15.20
2022-10-21T10:17:32.809Z,15.60
2022-10-21T10:20:20.143Z,15.90
2022-10-21T10:23:07.916Z,16.50
2022-10-21T10:25:38.666Z,17.30
2022-10-21T10:28:08.693Z,17.80
2022-10-21T10:30:42.288Z,18.10
2022-10-21T10:33:16.505Z,18.50
2022-10-21T10:36:09.286Z,19.50
2022-10-21T10:38:39.212Z,20.90
2022-10-21T10:41:12.319Z,21.70
2022-10-21T10:43:55.529Z,21.40
2022-10-21T10:46:28.819Z,21.60
2022-10-21T10:49:03.492Z,21.20
2022-10-21T10:51:33.721Z,20.50
2022-10-21T10:54:17.733Z,19.40
2022-10-21T10:57:00.837Z,18.60
2022-10-21T10:59:28.039Z,18.30
2022-10-21T11:02:10.702Z,18.20
2022-10-21T11:04:39.899Z,18.00
2022-10-21T11:07:24.063Z,17.90
2022-10-21T11:09:56.888Z,17.60
2022-10-21T11:12:26.574Z,17.40
2022-10-21T11:14:57.633Z,17.10
2022-10-21T11:17:41.147Z,16.80
2022-10-21T11:20:18.276Z,16.70
2022-10-21T11:22:57.989Z,16.50
2022-10-21T11:25:34.091Z,16.50
2022-10-21T11:28:26.318Z,16.30
2022-10-21T11:31:03.807Z,16.20
2022-10-21T11:33:48.006Z,15.80
2022-10-21T11:36:41.511Z,15.40
2022-10-21T11:39:50.058Z,15.10
2022-10-21T11:42:26.949Z,14.90
2022-10-21T11:45:12.865Z,14.80
2022-10-21T11:48:00.584Z,14.70
2022-10-21T11:50:34.071Z,14.60
2022-10-21T11:53:10.411Z,14.10
2022-10-21T11:55:47.234Z,14.00
2022-10-21T11:58:35.528Z,14.10
2022-10-21T12:01:27.054Z,14.10
2022-10-21T12:04:29.398Z,14.30
2022-10-21T12:07:11.196Z,14.60
2022-10-21T12:09:48.636Z,15.00
2022-10-21T12:12:21.654Z,15.20
2022-10-21T12:14:58.426Z,15.30
2022-10-21T12:17:26.281Z,15.20
2022-10-21T12:20:06.301Z,15.00
2022-10-21T12:22:37.058Z,14.90
2022-10-21T12:25:10.242Z,14.90
2022-10-21T12:27:55.896Z,14.70
2022-10-21T12:30:31.036Z,14.60
2022-10-21T12:33:23.796Z,14.40
2022-10-21T12:35:53.986Z,14.20
2022-10-21T12:38:25.884Z,14.00
2022-10-21T12:41:25.973Z,13.80
2022-10-21T12:43:54.461Z,13.60
2022-10-21T12:46:28.460Z,13.50
2022-10-21T12:48:56.686Z,13.30
2022-10-21T12:51:29.184Z,13.20
2022-10-21T12:54:02.652Z,13.10
2022-10-21T12:56:36.058Z,12.90
2022-10-21T12:59:05.211Z,12.90
2022-10-21T13:01:37.821Z,12.80
2022-10-21T13:04:18.388Z,12.80
2022-10-21T13:06:56.871Z,12.70
2022-10-21T13:09:50.681Z,12.60
2022-10-21T13:12:24.170Z,12.50
2022-10-21T13:14:56.440Z,12.50
2022-10-21T13:17:33.565Z,12.40
2022-10-21T13:20:06.818Z,12.40
2022-10-21T13:22:42.443Z,12.30
2022-10-21T13:32:15.916Z,12.20
2022-10-21T13:34:55.499Z,12.20
2022-10-21T14:00:07.403Z,11.40
2022-10-21T14:02:35.390Z,11.30
2022-10-21T14:05:02.584Z,11.30
2022-10-21T14:07:30.341Z,11.30
2022-10-21T14:09:58.950Z,11.30
2022-10-21T14:12:34.711Z,11.20
2022-10-21T14:15:07.032Z,11.20
2022-10-21T14:17:47.972Z,11.20
2022-10-21T14:20:22.609Z,11.20
2022-10-21T14:22:51.034Z,11.20
2022-10-21T14:25:19.778Z,11.20
2022-10-21T14:31:12.197Z,11.30
2022-10-21T14:33:44.880Z,11.20
2022-10-21T14:36:21.390Z,11.20
2022-10-21T14:39:00.724Z,11.30
2022-10-21T14:41:45.966Z,11.30
2022-10-21T14:44:18.339Z,11.30
2022-10-21T14:46:48.739Z,11.30
2022-10-21T14:49:23.733Z,11.30
2022-10-21T14:52:06.690Z,11.30
2022-10-21T14:54:42.884Z,11.30
2022-10-21T14:57:26.846Z,11.30
2022-10-21T14:59:54.806Z,11.30
2022-10-21T15:02:31.078Z,11.20
2022-10-21T15:05:00.299Z,11.10
2022-10-21T15:07:35.622Z,11.10
2022-10-21T15:10:02.999Z,11.00
2022-10-21T15:12:42.734Z,11.00
2022-10-21T15:15:41.071Z,10.90
2022-10-21T15:18:21.520Z,10.80
2022-10-21T15:21:12.885Z,10.70
2022-10-21T15:23:51.786Z,10.60
2022-10-21T15:26:26.959Z,10.60
2022-10-21T15:28:55.725Z,10.60
2022-10-21T15:31:27.810Z,10.60
2022-10-21T15:33:57.263Z,10.60
2022-10-21T15:36:24.889Z,10.50
2022-10-21T15:39:05.385Z,10.50
2022-10-21T15:41:36.071Z,10.50
2022-10-21T15:44:14.887Z,10.50
2022-10-21T15:46:42.696Z,10.50
2022-10-21T15:49:18.843Z,10.40
2022-10-21T15:51:47.343Z,10.30
2022-10-21T15:54:19.115Z,10.40
2022-10-21T15:56:50.342Z,10.40
2022-10-21T15:59:29.100Z,10.40
2022-10-21T16:01:58.014Z,10.40
2022-10-21T16:04:30.042Z,10.40
2022-10-21T16:06:57.636Z,10.40
2022-10-21T16:09:28.035Z,10.40
2022-10-21T16:12:00.034Z,10.40
2022-10-21T16:14:30.495Z,10.30
2022-10-21T16:16:59.460Z,10.20
2022-10-21T16:19:26.926Z,10.30
2022-10-21T16:21:54.479Z,10.30
2022-10-21T16:24:21.877Z,10.30
2022-10-21T16:26:50.184Z,10.30
2022-10-21T16:29:21.580Z,10.20
2022-10-21T16:31:49.815Z,10.20
2022-10-21T16:34:17.297Z,10.20
2022-10-21T16:36:44.781Z,10.30
2022-10-21T16:39:18.128Z,10.20
2022-10-21T16:41:45.587Z,10.20
2022-10-21T16:44:12.814Z,10.20
2022-10-21T16:46:44.176Z,10.30
2022-10-21T16:49:18.472Z,10.30
2022-10-21T16:51:48.345Z,10.30
2022-10-21T16:54:16.245Z,10.30
2022-10-21T16:56:43.597Z,10.40
2022-10-21T16:59:10.779Z,10.40
2022-10-21T17:01:39.140Z,10.40
2022-10-21T17:04:11.487Z,10.40
2022-10-21T17:06:39.114Z,10.40
2022-10-21T17:09:06.230Z,10.50
2022-10-21T17:11:36.911Z,10.40
2022-10-21T17:14:06.163Z,10.40
2022-10-21T17:16:33.598Z,10.50
2022-10-21T17:19:00.762Z,10.50
2022-10-21T17:21:31.041Z,10.50
2022-10-21T17:23:59.336Z,10.50
2022-10-21T17:26:27.072Z,10.50
2022-10-21T17:28:54.552Z,10.50
2022-10-21T17:31:24.734Z,10.50
2022-10-21T17:33:52.999Z,10.50
2022-10-21T17:36:20.927Z,10.60
2022-10-21T17:38:50.584Z,10.50
2022-10-21T17:41:18.655Z,10.50
2022-10-21T17:43:46.553Z,10.60
2022-10-21T17:46:19.640Z,10.60
2022-10-21T17:48:50.993Z,10.60
2022-10-21T17:51:21.598Z,10.60
2022-10-21T17:53:50.318Z,10.60
2022-10-21T17:56:18.514Z,10.60
2022-10-21T17:58:49.304Z,10.60
2022-10-21T18:01:17.341Z,10.60
2022-10-21T18:03:46.949Z,10.50
2022-10-21T18:06:15.514Z,10.50
2022-10-21T18:08:43.859Z,10.60
2022-10-21T18:11:14.297Z,10.60
2022-10-21T18:13:43.043Z,10.60
2022-10-21T18:16:20.602Z,10.60
2022-10-21T18:18:48.172Z,10.60
2022-10-21T18:21:22.060Z,10.60
2022-10-21T18:23:51.266Z,10.70
2022-10-21T18:26:26.661Z,10.60
2022-10-21T18:28:56.404Z,10.70
2022-10-21T18:31:25.835Z,10.70
2022-10-21T18:33:54.700Z,10.70
2022-10-21T18:36:22.643Z,10.70
2022-10-21T18:38:49.995Z,10.70
2022-10-21T18:41:21.317Z,10.70
2022-10-21T18:43:53.869Z,10.70
2022-10-21T18:46:23.115Z,10.70
2022-10-21T18:48:50.624Z,10.80
2022-10-21T18:51:20.116Z,10.70
2022-10-21T18:53:49.997Z,10.70
2022-10-21T18:56:22.210Z,10.60
2022-10-21T18:58:50.630Z,10.60
2022-10-21T19:01:19.545Z,10.60
2022-10-21T19:03:47.417Z,10.50
2022-10-21T19:06:30.400Z,10.60
2022-10-21T19:08:58.128Z,10.60
2022-10-21T19:11:25.977Z,10.60
2022-10-21T19:13:59.149Z,10.60
2022-10-21T19:16:28.114Z,10.60
2022-10-21T19:18:57.678Z,10.60
2022-10-21T19:21:26.997Z,10.60
2022-10-21T19:23:55.256Z,10.50
2022-10-21T19:26:23.281Z,10.50
2022-10-21T19:28:51.132Z,10.50
2022-10-21T19:31:19.030Z,10.40
2022-10-21T19:33:47.982Z,10.30
2022-10-21T19:36:15.548Z,10.30
2022-10-21T19:38:44.898Z,10.30
2022-10-21T19:41:21.539Z,10.20
2022-10-21T19:43:51.246Z,10.20
2022-10-21T19:46:25.699Z,10.20
2022-10-21T19:48:53.676Z,10.20
2022-10-21T19:51:24.430Z,10.20
2022-10-21T19:53:54.994Z,10.10
2022-10-21T19:56:26.831Z,10.10
2022-10-21T19:58:55.422Z,10.10
2022-10-21T20:01:26.798Z,10.00
2022-10-21T20:03:55.247Z,10.00
2022-10-21T20:06:28.426Z,10.00
2022-10-21T20:08:57.918Z,10.00
2022-10-21T20:11:32.434Z,10.00
2022-10-21T20:14:01.616Z,10.00
2022-10-21T20:16:36.549Z,10.00
2022-10-21T20:19:06.940Z,10.00
2022-10-21T20:21:36.202Z,10.00
2022-10-21T20:24:04.089Z,10.00
2022-10-21T20:26:31.871Z,10.00
2022-10-21T20:28:59.682Z,10.10
2022-10-21T20:31:27.059Z,10.10
2022-10-21T20:33:54.643Z,10.10
2022-10-21T20:36:30.666Z,10.10
2022-10-21T20:39:00.154Z,10.10
2022-10-21T20:41:32.340Z,10.20
2022-10-21T20:44:00.789Z,10.10
2022-10-21T20:46:28.317Z,10.10
2022-10-21T20:48:55.661Z,10.10
2022-10-21T20:51:29.711Z,10.10
2022-10-21T20:53:59.690Z,10.00
2022-10-21T20:56:29.235Z,10.00
2022-10-21T20:58:56.925Z,10.00
2022-10-21T21:01:27.818Z,10.00
2022-10-21T21:03:57.657Z,10.00
2022-10-21T21:06:25.844Z,9.90
2022-10-21T21:09:22.193Z,9.90
2022-10-21T21:11:41.526Z,9.90
2022-10-21T21:14:08.772Z,9.90
2022-10-21T21:16:36.253Z,9.90
2022-10-21T21:19:10.838Z,9.90
2022-10-21T21:21:38.927Z,9.90
2022-10-21T21:24:06.685Z,9.90
2022-10-21T21:26:37.107Z,9.80
2022-10-21T21:29:08.031Z,9.80
2022-10-21T21:31:37.754Z,9.80
2022-10-21T21:34:07.030Z,9.70
2022-10-21T21:36:34.641Z,9.70
2022-10-21T21:39:02.098Z,9.70
2022-10-21T21:41:29.479Z,9.70
2022-10-21T21:43:56.755Z,9.60
2022-10-21T21:46:25.757Z,9.60
2022-10-21T21:49:00.979Z,9.60
2022-10-21T21:51:34.299Z,9.60
2022-10-21T21:54:01.557Z,9.60
2022-10-21T21:56:28.983Z,9.60
2022-10-21T21:58:56.639Z,9.50
2022-10-21T22:01:27.357Z,9.60
2022-10-21T22:03:55.456Z,9.50
2022-10-21T22:06:28.303Z,9.60
2022-10-21T22:09:02.173Z,9.60
2022-10-21T22:11:32.793Z,9.60
2022-10-21T22:14:00.449Z,9.50
2022-10-21T22:16:28.343Z,9.50
2022-10-21T22:18:59.990Z,9.50
2022-10-21T22:21:29.687Z,9.50
2022-10-21T22:23:57.170Z,9.50
2022-10-21T22:26:24.812Z,9.50
2022-10-21T22:28:51.965Z,9.50
2022-10-21T22:31:19.939Z,9.50
2022-10-21T22:33:47.327Z,9.50
2022-10-21T22:36:17.247Z,9.50
2022-10-21T22:38:44.890Z,9.50
2022-10-21T22:41:13.035Z,9.50
2022-10-21T22:43:42.437Z,9.60
2022-10-21T22:46:29.319Z,9.70
2022-10-21T22:49:03.131Z,9.70
2022-10-21T22:51:33.759Z,9.80
2022-10-21T22:54:01.465Z,9.80
2022-10-21T22:56:29.390Z,9.90
2022-10-21T22:58:58.932Z,9.90
2022-10-21T23:01:27.990Z,9.90
2022-10-21T23:03:55.376Z,9.90
2022-10-21T23:06:24.996Z,9.90
2022-10-21T23:08:52.085Z,10.00
2022-10-21T23:11:19.648Z,9.90
2022-10-21T23:13:56.405Z,9.90
2022-10-21T23:16:30.561Z,10.00
2022-10-21T23:18:58.207Z,9.90
2022-10-21T23:21:25.504Z,9.90
2022-10-21T23:23:57.230Z,9.90
2022-10-21T23:26:24.866Z,9.90
2022-10-21T23:28:52.159Z,9.90
2022-10-21T23:31:19.990Z,9.90
2022-10-21T23:33:49.520Z,9.80
2022-10-21T23:36:16.760Z,9.80
2022-10-21T23:38:46.295Z,9.90
2022-10-21T23:41:14.131Z,9.80
2022-10-21T23:43:41.270Z,9.80
2022-10-21T23:46:08.475Z,9.80
2022-10-21T23:48:35.958Z,9.80
2022-10-21T23:51:03.373Z,9.80
2022-10-21T23:53:30.636Z,9.90
2022-10-21T23:55:58.242Z,9.90
2022-10-21T23:58:25.233Z,10.00
